Time;durP1;ratioP1;P1;durP2;ratioP2;P2;SDS_P1;SDS_P2;PMS_P1;PMS_P2;Temp;Humidity;BMP_temperature;BMP_pressure;BME280_temperature;BME280_humidity;BME280_pressure;Samples;Min_cycle;Max_cycle;Signal;HPM_P1;HPM_P2
2023/07/14 00:01:24;;;;;;;5.70;2.93;;;16.80;99.90;;;;;;5049941;28;20431;-66
2023/07/14 00:03:53;;;;;;;5.50;3.47;;;16.90;99.90;;;;;;5049482;28;20457;-65
2023/07/14 00:06:21;;;;;;;5.40;3.47;;;16.90;99.90;;;;;;5036810;28;20503;-66
2023/07/14 00:08:50;;;;;;;4.90;3.67;;;17.00;99.90;;;;;;5029606;28;20476;-66
2023/07/14 00:11:21;;;;;;;6.57;3.83;;;17.10;99.90;;;;;;5029746;28;20888;-66
2023/07/14 00:13:49;;;;;;;5.60;3.47;;;17.10;99.90;;;;;;5029502;28;20502;-65
2023/07/14 00:16:19;;;;;;;5.53;4.00;;;17.20;99.90;;;;;;5029554;28;20449;-65
2023/07/14 00:18:47;;;;;;;4.83;3.20;;;17.30;99.90;;;;;;5029762;28;20469;-66
2023/07/14 00:21:21;;;;;;;4.03;3.27;;;17.30;99.90;;;;;;5030795;28;20479;-66
2023/07/14 00:23:50;;;;;;;4.60;3.40;;;17.30;99.90;;;;;;5029594;28;20433;-66
2023/07/14 00:26:20;;;;;;;6.17;3.60;;;17.40;99.90;;;;;;5029971;28;20448;-66
2023/07/14 00:28:49;;;;;;;4.13;3.13;;;17.40;99.90;;;;;;5029825;28;20552;-65
2023/07/14 00:31:18;;;;;;;5.67;3.60;;;17.40;99.90;;;;;;5029970;28;21025;-66
2023/07/14 00:33:49;;;;;;;4.20;2.90;;;17.30;99.90;;;;;;5029704;28;20481;-65
2023/07/14 00:36:19;;;;;;;4.23;2.73;;;17.20;99.90;;;;;;5029873;28;20445;-66
2023/07/14 00:38:47;;;;;;;3.70;3.40;;;17.10;99.90;;;;;;5030594;28;20514;-65
2023/07/14 00:41:19;;;;;;;3.93;3.10;;;17.10;99.90;;;;;;5029524;28;20449;-66
2023/07/14 00:43:48;;;;;;;5.40;3.83;;;17.00;99.90;;;;;;5029224;28;20924;-65
2023/07/14 00:46:25;;;;;;;4.67;3.20;;;16.80;99.90;;;;;;5029749;28;20511;-66
2023/07/14 00:48:56;;;;;;;4.60;3.33;;;16.80;99.90;;;;;;5029430;28;20460;-66
2023/07/14 00:51:27;;;;;;;6.30;4.40;;;16.70;99.90;;;;;;5029577;28;20872;-66
2023/07/14 00:53:56;;;;;;;5.70;3.93;;;16.60;99.90;;;;;;5029019;28;20583;-66
2023/07/14 00:56:35;;;;;;;6.77;3.80;;;16.60;99.90;;;;;;5030557;28;20445;-66
2023/07/14 00:59:13;;;;;;;3.27;2.97;;;16.50;99.90;;;;;;5029478;28;20809;-66
2023/07/14 01:02:14;;;;;;;6.07;3.87;;;16.40;99.90;;;;;;5029344;28;20818;-66
2023/07/14 01:04:45;;;;;;;6.80;3.60;;;16.30;99.90;;;;;;5029474;28;20915;-66
2023/07/14 01:07:16;;;;;;;4.17;3.60;;;16.20;99.90;;;;;;5029287;28;20440;-66
2023/07/14 01:09:45;;;;;;;4.87;3.20;;;16.20;99.90;;;;;;5029367;28;20639;-66
2023/07/14 01:12:16;;;;;;;6.40;4.10;;;16.30;99.90;;;;;;5030194;28;20464;-66
2023/07/14 01:14:48;;;;;;;6.00;3.80;;;16.40;99.90;;;;;;5029199;28;20467;-65
2023/07/14 01:17:16;;;;;;;4.10;3.53;;;16.40;99.90;;;;;;5029043;28;20437;-66
2023/07/14 01:19:49;;;;;;;3.50;3.20;;;16.50;99.90;;;;;;5029308;28;20563;-66
2023/07/14 01:22:30;;;;;;;3.93;3.00;;;16.50;99.90;;;;;;5028897;28;20560;-66
2023/07/14 01:25:07;;;;;;;7.17;3.30;;;16.50;99.90;;;;;;5029091;28;20628;-66
2023/07/14 01:27:36;;;;;;;6.57;3.60;;;16.50;99.90;;;;;;5029268;28;20532;-66
2023/07/14 01:30:05;;;;;;;6.40;3.20;;;16.50;99.90;;;;;;5031594;28;20464;-65
2023/07/14 01:32:37;;;;;;;4.87;3.60;;;16.50;99.90;;;;;;5034140;28;20480;-66
2023/07/14 01:35:07;;;;;;;5.23;2.87;;;16.50;99.90;;;;;;5052434;28;20442;-66
2023/07/14 01:37:37;;;;;;;3.70;2.97;;;16.40;99.90;;;;;;5052161;28;20472;-66
2023/07/14 01:40:08;;;;;;;4.90;3.57;;;16.40;99.90;;;;;;5052216;28;20498;-66
2023/07/14 01:42:38;;;;;;;3.20;2.87;;;16.30;99.90;;;;;;5052309;28;20432;-66
2023/07/14 01:45:12;;;;;;;5.60;3.40;;;16.20;99.90;;;;;;5041205;28;20506;-65
2023/07/14 01:47:41;;;;;;;4.03;2.90;;;16.10;99.90;;;;;;5048577;28;21132;-66
2023/07/14 01:50:17;;;;;;;4.17;2.90;;;16.00;99.90;;;;;;5032116;28;20469;-66
2023/07/14 01:52:46;;;;;;;4.40;3.70;;;15.90;99.90;;;;;;5048438;28;20472;-66
2023/07/14 01:55:19;;;;;;;4.63;3.50;;;15.70;99.90;;;;;;5051856;28;20447;-66
2023/07/14 01:57:52;;;;;;;4.20;3.53;;;15.60;99.90;;;;;;5052250;28;20441;-65
2023/07/14 02:00:21;;;;;;;5.03;3.03;;;15.50;99.90;;;;;;5050143;28;20470;-66
2023/07/14 02:02:52;;;;;;;7.57;3.20;;;15.40;99.90;;;;;;5051470;28;20471;-65
2023/07/14 02:05:26;;;;;;;5.37;3.67;;;15.60;99.90;;;;;;5052172;28;20521;-66
2023/07/14 02:07:57;;;;;;;6.80;3.23;;;15.50;99.90;;;;;;5052072;28;20822;-66
2023/07/14 02:10:25;;;;;;;3.50;3.20;;;15.40;99.90;;;;;;5051989;28;20974;-66
2023/07/14 02:12:55;;;;;;;5.50;3.30;;;15.30;99.90;;;;;;5051454;28;20475;-66
2023/07/14 02:15:26;;;;;;;5.70;3.60;;;15.30;99.90;;;;;;5041544;28;20456;-65
2023/07/14 02:17:55;;;;;;;3.57;2.97;;;15.30;99.90;;;;;;5031788;28;20447;-66
2023/07/14 02:20:28;;;;;;;6.90;3.70;;;15.20;99.90;;;;;;5031954;28;20853;-66
2023/07/14 02:22:57;;;;;;;3.70;3.33;;;15.10;99.90;;;;;;5031418;28;20465;-65
2023/07/14 02:25:30;;;;;;;4.27;3.23;;;15.10;99.90;;;;;;5031635;28;20455;-65
2023/07/14 02:28:00;;;;;;;4.60;3.20;;;15.10;99.90;;;;;;5031737;28;20444;-65
2023/07/14 02:30:29;;;;;;;3.27;2.97;;;15.10;99.90;;;;;;5032201;28;20499;-65
2023/07/14 02:33:02;;;;;;;4.43;3.27;;;15.00;99.90;;;;;;5051443;28;20498;-65
2023/07/14 02:35:45;;;;;;;4.80;3.10;;;15.00;99.90;;;;;;5051917;28;20491;-65
2023/07/14 02:38:14;;;;;;;3.93;3.47;;;15.10;99.90;;;;;;5051843;28;20445;-65
2023/07/14 02:40:46;;;;;;;4.50;3.60;;;15.20;99.90;;;;;;5051151;28;20868;-65
2023/07/14 02:43:19;;;;;;;3.43;3.17;;;15.20;99.90;;;;;;5051237;28;20440;-65
2023/07/14 02:45:53;;;;;;;5.97;3.77;;;15.10;99.90;;;;;;5051275;28;20436;-65
2023/07/14 02:48:26;;;;;;;5.47;3.40;;;15.00;99.90;;;;;;5037333;28;20534;-65
2023/07/14 02:50:54;;;;;;;3.17;2.80;;;15.00;99.90;;;;;;5031215;28;20826;-66
2023/07/14 02:53:22;;;;;;;3.63;3.10;;;14.90;99.90;;;;;;5030891;28;20511;-65
2023/07/14 02:55:50;;;;;;;6.17;3.50;;;14.80;99.90;;;;;;5031074;28;20439;-65
2023/07/14 02:58:19;;;;;;;4.67;3.70;;;14.80;99.90;;;;;;5031026;28;20557;-65
2023/07/14 03:00:48;;;;;;;4.13;3.53;;;14.80;99.90;;;;;;5030830;28;20940;-65
2023/07/14 03:03:16;;;;;;;4.70;3.80;;;14.80;99.90;;;;;;5032044;28;20549;-65
2023/07/14 03:05:44;;;;;;;6.97;3.90;;;14.80;99.90;;;;;;5031100;28;20457;-65
2023/07/14 03:08:15;;;;;;;4.80;3.17;;;14.80;99.90;;;;;;5030719;28;20457;-65
2023/07/14 03:10:43;;;;;;;4.50;3.30;;;14.80;99.90;;;;;;5030890;28;20439;-65
2023/07/14 03:13:11;;;;;;;3.83;3.37;;;14.70;99.90;;;;;;5030252;28;20959;-65
2023/07/14 03:15:42;;;;;;;4.87;3.87;;;14.60;99.90;;;;;;5030670;28;20853;-65
2023/07/14 03:18:10;;;;;;;6.23;3.30;;;14.60;99.90;;;;;;5030608;28;20880;-65
2023/07/14 03:20:38;;;;;;;6.70;3.70;;;14.50;99.90;;;;;;5031703;28;20528;-65
2023/07/14 03:23:06;;;;;;;4.13;3.47;;;14.60;99.90;;;;;;5030206;28;20491;-65
2023/07/14 03:25:34;;;;;;;5.10;3.63;;;14.50;99.90;;;;;;5030554;28;21019;-65
2023/07/14 03:28:03;;;;;;;5.20;3.33;;;14.40;99.90;;;;;;5030393;28;20448;-65
2023/07/14 03:30:39;;;;;;;5.10;3.30;;;14.40;99.90;;;;;;5030445;28;20476;-65
2023/07/14 03:33:08;;;;;;;3.60;3.10;;;14.40;99.90;;;;;;5030310;28;20939;-65
2023/07/14 03:35:36;;;;;;;5.30;3.43;;;14.20;99.90;;;;;;5030283;28;20531;-65
2023/07/14 03:38:04;;;;;;;4.00;3.33;;;14.40;99.90;;;;;;5031483;28;20540;-65
2023/07/14 03:40:32;;;;;;;5.73;3.90;;;14.40;99.90;;;;;;5029946;28;21080;-65
2023/07/14 03:43:03;;;;;;;4.20;3.17;;;14.30;99.90;;;;;;5029957;28;20977;-64
2023/07/14 03:45:31;;;;;;;5.97;3.80;;;14.20;99.90;;;;;;5030499;28;20436;-65
2023/07/14 03:47:59;;;;;;;3.90;3.00;;;14.20;99.90;;;;;;5030353;28;20471;-65
2023/07/14 03:50:29;;;;;;;5.20;3.70;;;14.30;99.90;;;;;;5030324;28;20477;-65
2023/07/14 03:52:56;;;;;;;4.77;3.30;;;14.40;99.90;;;;;;5046872;28;20449;-65
2023/07/14 03:55:24;;;;;;;3.47;3.17;;;14.50;99.90;;;;;;5050106;28;20491;-65
2023/07/14 03:57:52;;;;;;;4.43;4.03;;;14.40;99.90;;;;;;5050053;28;20452;-65
2023/07/14 04:00:28;;;;;;;3.70;3.37;;;14.50;99.90;;;;;;5049978;28;20479;-65
2023/07/14 04:02:56;;;;;;;3.60;3.30;;;14.60;99.90;;;;;;5049546;28;20481;-65
2023/07/14 04:05:24;;;;;;;4.97;3.43;;;14.50;99.90;;;;;;5044803;28;20537;-65
2023/07/14 04:07:53;;;;;;;5.10;3.70;;;14.60;99.90;;;;;;5029947;28;20870;-65
2023/07/14 04:10:21;;;;;;;3.97;3.40;;;14.60;99.90;;;;;;5030171;28;20887;-65
2023/07/14 04:12:51;;;;;;;4.13;3.73;;;14.50;99.90;;;;;;5029829;28;20532;-65
2023/07/14 04:15:21;;;;;;;5.63;3.20;;;14.60;99.90;;;;;;5030047;28;20510;-65
2023/07/14 04:17:50;;;;;;;5.17;3.60;;;14.60;99.90;;;;;;5030078;28;20531;-65
2023/07/14 04:20:18;;;;;;;5.53;3.80;;;14.80;99.90;;;;;;5030083;28;20492;-65
2023/07/14 04:22:46;;;;;;;6.67;3.63;;;15.00;99.90;;;;;;5044146;28;20457;-65
2023/07/14 04:25:15;;;;;;;4.90;3.53;;;15.10;99.90;;;;;;5049469;28;20636;-64
2023/07/14 04:27:43;;;;;;;4.37;2.80;;;15.40;99.90;;;;;;5049887;28;20802;-65
2023/07/14 04:30:12;;;;;;;4.20;3.80;;;15.50;99.90;;;;;;5047113;28;20814;-65
2023/07/14 04:32:42;;;;;;;3.43;3.13;;;15.40;99.90;;;;;;5048910;28;20444;-65
2023/07/14 04:35:10;;;;;;;3.10;2.67;;;15.50;99.90;;;;;;5043304;28;20484;-64
2023/07/14 04:37:38;;;;;;;3.80;3.37;;;15.70;99.90;;;;;;5049628;28;20481;-64
2023/07/14 04:40:08;;;;;;;5.57;3.90;;;15.90;99.90;;;;;;5042431;28;20467;-66
2023/07/14 04:42:57;;;;;;;3.03;2.83;;;15.90;99.90;;;;;;5048844;28;21097;-66
2023/07/14 04:45:25;;;;;;;5.33;3.07;;;16.00;99.90;;;;;;5043042;28;20525;-65
2023/07/14 04:47:53;;;;;;;3.90;3.60;;;16.10;99.90;;;;;;5048346;28;20532;-64
2023/07/14 04:50:21;;;;;;;8.50;3.60;;;16.10;99.90;;;;;;5039825;28;20542;-65
2023/07/14 04:52:49;;;;;;;4.70;4.13;;;16.30;99.90;;;;;;5048825;28;20440;-65
2023/07/14 04:55:17;;;;;;;3.90;3.50;;;16.40;99.90;;;;;;5043478;28;20889;-64
2023/07/14 04:57:47;;;;;;;4.07;3.67;;;16.30;99.90;;;;;;5029495;28;20445;-64
2023/07/14 05:00:18;;;;;;;7.43;3.90;;;16.30;99.90;;;;;;5029278;28;20503;-66
2023/07/14 05:02:46;;;;;;;4.90;3.50;;;16.30;99.90;;;;;;5029346;28;20486;-66
2023/07/14 05:05:18;;;;;;;4.30;3.90;;;16.30;99.90;;;;;;5033275;28;20437;-66
2023/07/14 05:07:48;;;;;;;5.57;3.40;;;16.40;99.90;;;;;;5032941;28;20477;-65
2023/07/14 05:10:16;;;;;;;5.70;3.40;;;16.50;99.90;;;;;;5033520;28;20541;-65
2023/07/14 05:12:44;;;;;;;4.03;3.33;;;16.60;99.90;;;;;;5046498;28;20452;-66
2023/07/14 05:15:12;;;;;;;4.33;3.27;;;16.70;99.90;;;;;;5053017;28;20479;-65
2023/07/14 05:17:42;;;;;;;5.93;3.03;;;16.80;99.90;;;;;;5053013;28;20450;-66
2023/07/14 05:20:12;;;;;;;3.87;3.37;;;16.90;99.90;;;;;;5052755;28;20518;-67
2023/07/14 05:22:42;;;;;;;4.23;3.60;;;17.10;99.90;;;;;;5047802;28;20458;-66
2023/07/14 05:25:10;;;;;;;3.60;3.10;;;17.20;99.90;;;;;;5051026;28;20440;-68
2023/07/14 05:27:39;;;;;;;2.97;2.77;;;17.30;99.90;;;;;;5048027;28;20539;-64
2023/07/14 05:30:09;;;;;;;3.77;3.40;;;17.60;99.90;;;;;;5049562;28;20919;-66
2023/07/14 05:32:38;;;;;;;5.70;2.93;;;17.80;99.90;;;;;;5052194;28;20447;-66
2023/07/14 05:35:08;;;;;;;3.73;3.33;;;17.70;99.90;;;;;;5052141;28;20475;-66
2023/07/14 05:37:36;;;;;;;4.10;2.87;;;17.70;99.90;;;;;;5051442;28;20543;-66
2023/07/14 05:40:06;;;;;;;6.17;4.30;;;17.90;99.90;;;;;;5049796;28;21174;-66
2023/07/14 05:42:34;;;;;;;8.87;3.80;;;17.90;99.90;;;;;;5052046;28;21024;-66
2023/07/14 05:45:03;;;;;;;7.50;3.40;;;18.10;99.90;;;;;;5051606;28;20467;-64
2023/07/14 05:47:31;;;;;;;5.97;3.50;;;18.10;99.90;;;;;;5052007;28;20938;-64
2023/07/14 05:50:00;;;;;;;3.53;3.00;;;18.10;99.90;;;;;;5052463;28;20464;-65
2023/07/14 05:52:29;;;;;;;3.77;3.47;;;18.30;99.90;;;;;;5050499;28;20515;-63
2023/07/14 05:54:57;;;;;;;4.00;3.33;;;18.60;99.90;;;;;;5051943;28;20889;-65
2023/07/14 05:57:25;;;;;;;4.50;2.97;;;18.80;99.90;;;;;;5051972;28;20436;-65
2023/07/14 05:59:53;;;;;;;3.90;3.50;;;19.00;99.90;;;;;;5051746;28;20468;-66
2023/07/14 06:02:21;;;;;;;5.53;3.63;;;19.10;99.90;;;;;;5032255;28;20445;-66
2023/07/14 06:04:50;;;;;;;4.10;3.40;;;19.30;99.90;;;;;;5031133;28;20456;-66
2023/07/14 06:07:18;;;;;;;3.27;2.97;;;19.50;99.90;;;;;;5032315;28;20444;-66
2023/07/14 06:09:47;;;;;;;5.77;3.23;;;19.80;99.90;;;;;;5031791;28;21098;-66
2023/07/14 06:12:15;;;;;;;5.00;3.57;;;19.80;99.90;;;;;;5032055;28;20480;-65
2023/07/14 06:14:43;;;;;;;4.00;3.70;;;19.90;99.90;;;;;;5031069;28;20531;-65
2023/07/14 06:17:12;;;;;;;4.87;3.40;;;19.80;99.90;;;;;;5032350;28;20515;-66
2023/07/14 06:19:40;;;;;;;5.30;3.60;;;19.80;99.90;;;;;;5031984;28;20997;-66
2023/07/14 06:22:08;;;;;;;5.53;3.87;;;19.70;99.90;;;;;;5033260;28;20453;-66
2023/07/14 06:24:36;;;;;;;5.50;3.03;;;19.60;99.90;;;;;;5031964;28;20437;-66
2023/07/14 06:27:06;;;;;;;5.40;3.40;;;19.60;99.90;;;;;;5032280;28;20919;-66
2023/07/14 06:29:38;;;;;;;4.77;3.30;;;19.60;99.90;;;;;;5032079;28;20464;-66
2023/07/14 06:32:06;;;;;;;4.80;4.00;;;19.60;99.90;;;;;;5031891;28;20441;-66
2023/07/14 06:34:34;;;;;;;7.30;3.50;;;19.70;99.90;;;;;;5037381;28;20575;-66
2023/07/14 06:37:02;;;;;;;5.77;3.67;;;19.80;99.90;;;;;;5031715;28;20483;-66
2023/07/14 06:39:30;;;;;;;4.20;3.47;;;19.80;99.90;;;;;;5031414;28;20475;-66
2023/07/14 06:41:58;;;;;;;5.37;3.70;;;19.90;99.90;;;;;;5031797;28;20498;-66
2023/07/14 06:44:28;;;;;;;5.63;3.93;;;20.10;99.70;;;;;;5031241;28;20977;-66
2023/07/14 06:46:56;;;;;;;5.63;3.40;;;20.20;99.30;;;;;;5033289;28;20441;-66
2023/07/14 06:49:24;;;;;;;5.30;3.30;;;20.10;99.50;;;;;;5051298;28;20836;-66
2023/07/14 06:51:56;;;;;;;5.50;3.67;;;20.20;98.60;;;;;;5051359;28;20523;-65
2023/07/14 06:54:24;;;;;;;5.40;3.50;;;20.20;98.80;;;;;;5050964;28;20498;-66
2023/07/14 06:56:52;;;;;;;3.20;2.90;;;20.40;99.90;;;;;;5051332;28;20557;-66
2023/07/14 06:59:20;;;;;;;4.73;4.17;;;20.50;98.80;;;;;;5051119;28;20831;-65
2023/07/14 07:01:49;;;;;;;7.80;3.03;;;20.50;97.20;;;;;;5051103;28;20443;-66
2023/07/14 07:04:17;;;;;;;3.30;3.00;;;20.70;97.70;;;;;;5049064;28;20517;-66
2023/07/14 07:06:45;;;;;;;4.67;2.80;;;20.70;97.50;;;;;;5050759;28;20484;-66
2023/07/14 07:09:13;;;;;;;3.33;2.63;;;20.90;95.90;;;;;;5050759;28;20475;-66
2023/07/14 07:11:41;;;;;;;3.37;2.47;;;21.00;93.10;;;;;;5050823;28;20979;-66
2023/07/14 07:14:09;;;;;;;3.30;2.80;;;21.10;94.40;;;;;;5050585;28;20486;-66
2023/07/14 07:16:37;;;;;;;3.27;2.67;;;21.20;92.40;;;;;;5051042;28;20574;-66
2023/07/14 07:19:07;;;;;;;4.37;3.33;;;21.30;93.10;;;;;;5050661;28;20514;-66
2023/07/14 07:21:35;;;;;;;2.43;2.23;;;21.50;91.60;;;;;;5032205;28;20479;-66
2023/07/14 07:24:05;;;;;;;2.87;2.57;;;21.70;90.90;;;;;;5030647;28;20499;-66
2023/07/14 07:26:33;;;;;;;4.00;2.50;;;21.70;91.50;;;;;;5030083;28;20449;-66
2023/07/14 07:29:01;;;;;;;3.57;2.53;;;21.70;91.90;;;;;;5030612;28;21008;-65
2023/07/14 07:31:29;;;;;;;4.83;3.03;;;21.90;90.80;;;;;;5030865;28;20495;-66
2023/07/14 07:33:57;;;;;;;2.57;2.37;;;21.90;92.20;;;;;;5030154;28;20445;-66
2023/07/14 07:36:27;;;;;;;3.50;2.90;;;22.00;90.50;;;;;;5038309;28;20476;-66
2023/07/14 07:38:55;;;;;;;3.20;2.33;;;22.00;88.70;;;;;;5050674;28;20502;-65
2023/07/14 07:41:26;;;;;;;3.23;2.70;;;22.20;88.70;;;;;;5050751;28;20993;-66
2023/07/14 07:43:54;;;;;;;4.20;2.60;;;22.40;90.10;;;;;;5050291;28;20444;-66
2023/07/14 07:46:22;;;;;;;7.03;4.27;;;22.50;87.00;;;;;;5050334;28;20843;-67
2023/07/14 07:48:50;;;;;;;5.13;2.90;;;22.40;87.10;;;;;;5050637;28;20495;-67
2023/07/14 07:51:18;;;;;;;4.03;2.67;;;22.50;84.00;;;;;;5050411;28;20497;-66
2023/07/14 07:53:48;;;;;;;3.57;2.83;;;22.60;83.30;;;;;;5048298;28;20444;-66
2023/07/14 07:56:16;;;;;;;5.47;2.60;;;22.70;83.70;;;;;;5050129;28;20523;-67
2023/07/14 07:58:44;;;;;;;4.63;2.90;;;22.70;85.00;;;;;;5050178;28;20824;-66
2023/07/14 08:01:19;;;;;;;7.32;3.00;;;22.90;82.90;;;;;;5049800;28;20427;-66
2023/07/14 08:03:47;;;;;;;5.33;2.80;;;23.10;83.00;;;;;;5050142;28;20232;-66
2023/07/14 08:06:16;;;;;;;5.30;3.30;;;23.20;84.40;;;;;;5049782;28;20527;-66
2023/07/14 08:08:44;;;;;;;5.33;3.50;;;23.40;79.70;;;;;;5050120;28;20472;-66
2023/07/14 08:11:14;;;;;;;3.37;2.20;;;23.50;79.70;;;;;;5050190;28;21113;-66
2023/07/14 08:13:42;;;;;;;4.70;3.00;;;23.80;79.90;;;;;;5050016;28;20730;-66
2023/07/14 08:16:11;;;;;;;4.30;2.80;;;23.80;79.90;;;;;;5049784;28;20830;-66
2023/07/14 08:18:40;;;;;;;6.40;2.77;;;23.90;77.10;;;;;;5049963;28;20487;-66
2023/07/14 08:21:08;;;;;;;5.40;2.47;;;24.00;73.30;;;;;;5050073;28;20444;-66
2023/07/14 08:23:36;;;;;;;4.00;2.47;;;24.10;72.10;;;;;;5043595;28;20507;-66
2023/07/14 08:26:06;;;;;;;5.83;2.63;;;24.20;74.10;;;;;;5030731;28;20497;-67
2023/07/14 08:28:35;;;;;;;3.10;2.20;;;24.40;70.70;;;;;;5038106;28;20468;-66
2023/07/14 08:31:07;;;;;;;3.90;2.23;;;24.70;67.60;;;;;;5050030;28;20444;-66
2023/07/14 08:33:36;;;;;;;3.20;2.37;;;25.00;66.90;;;;;;5049733;28;20470;-66
2023/07/14 08:36:05;;;;;;;6.73;2.43;;;25.30;63.00;;;;;;5049774;28;20442;-66
2023/07/14 08:38:34;;;;;;;3.10;2.13;;;25.60;58.90;;;;;;5051421;28;20459;-66
2023/07/14 08:41:09;;;;;;;3.63;2.20;;;25.80;56.40;;;;;;5054233;28;20558;-66
2023/07/14 08:43:48;;;;;;;3.13;2.57;;;26.00;55.50;;;;;;5036895;28;20485;-66
2023/07/14 08:46:27;;;;;;;4.23;2.10;;;26.20;57.90;;;;;;5034068;28;20436;-66
2023/07/14 08:49:03;;;;;;;4.93;2.60;;;26.40;57.50;;;;;;5033544;28;20465;-66
2023/07/14 08:51:37;;;;;;;3.73;2.40;;;26.70;56.20;;;;;;5033640;28;20483;-66
2023/07/14 08:54:11;;;;;;;5.57;2.13;;;27.30;56.90;;;;;;5033373;28;20851;-65
2023/07/14 08:56:41;;;;;;;3.73;1.90;;;27.50;54.20;;;;;;5033062;28;20472;-67
2023/07/14 08:59:16;;;;;;;3.50;2.17;;;27.80;52.50;;;;;;5043286;28;21049;-66
2023/07/14 09:01:50;;;;;;;4.00;2.03;;;28.00;50.60;;;;;;5053518;28;20447;-65
2023/07/14 09:04:22;;;;;;;36.27;5.50;;;28.10;50.30;;;;;;5042050;28;20947;-66
2023/07/14 09:06:51;;;;;;;20.13;4.43;;;28.30;51.40;;;;;;5033227;28;20449;-66
2023/07/14 09:09:22;;;;;;;91.20;11.00;;;28.40;49.30;;;;;;5033195;28;20472;-66
2023/07/14 09:12:01;;;;;;;9.63;3.63;;;28.70;49.90;;;;;;5033094;28;20918;-66
2023/07/14 09:14:59;;;;;;;4.77;2.23;;;28.90;47.40;;;;;;5034369;28;20505;-65
2023/07/14 09:17:45;;;;;;;2.60;1.90;;;28.90;47.40;;;;;;4998730;28;20579;-66
2023/07/14 09:20:37;;;;;;;4.10;2.30;;;29.20;45.60;;;;;;5033330;28;20477;-66
2023/07/14 09:23:21;;;;;;;2.70;2.33;;;29.30;47.20;;;;;;5032922;28;20492;-66
2023/07/14 09:25:56;;;;;;;4.77;2.10;;;29.60;47.10;;;;;;5033183;28;20459;-66
2023/07/14 09:28:33;;;;;;;3.53;1.90;;;29.60;45.50;;;;;;5032769;28;20476;-67
2023/07/14 09:31:06;;;;;;;4.30;2.17;;;29.80;45.90;;;;;;5034111;28;20494;-66
2023/07/14 09:33:48;;;;;;;6.47;2.27;;;29.90;44.80;;;;;;5032648;28;20439;-66
2023/07/14 09:36:16;;;;;;;2.27;1.93;;;29.90;46.00;;;;;;5037756;28;20532;-66
2023/07/14 09:38:50;;;;;;;3.00;2.00;;;30.00;44.60;;;;;;5037777;28;20559;-66
2023/07/14 09:41:19;;;;;;;6.07;1.90;;;30.20;40.80;;;;;;5037319;28;21029;-66
2023/07/14 09:43:47;;;;;;;8.93;2.50;;;30.30;44.60;;;;;;5035019;28;20531;-66
2023/07/14 09:46:17;;;;;;;6.93;2.33;;;30.50;46.40;;;;;;5033032;28;20875;-67
2023/07/14 09:48:50;;;;;;;2.40;2.00;;;30.70;43.20;;;;;;5033747;28;20832;-66
2023/07/14 09:51:23;;;;;;;3.67;2.10;;;30.80;42.40;;;;;;5036490;28;20478;-67
2023/07/14 09:53:59;;;;;;;2.70;2.13;;;30.80;43.30;;;;;;5052486;28;20448;-66
2023/07/14 09:56:30;;;;;;;3.40;2.07;;;30.70;40.40;;;;;;5037701;28;20444;-66
2023/07/14 09:59:02;;;;;;;3.63;1.90;;;30.50;43.40;;;;;;5033345;28;20481;-66
2023/07/14 10:01:33;;;;;;;5.70;2.40;;;30.60;44.30;;;;;;5042421;28;20456;-66
2023/07/14 10:04:14;;;;;;;3.37;2.10;;;30.50;45.80;;;;;;5051909;28;20443;-66
2023/07/14 10:06:42;;;;;;;2.80;2.20;;;30.40;40.70;;;;;;5052163;28;20443;-64
2023/07/14 10:09:13;;;;;;;3.90;2.37;;;30.10;42.90;;;;;;5051861;28;20480;-66
2023/07/14 10:11:45;;;;;;;3.20;2.20;;;30.00;40.30;;;;;;5052059;28;20519;-66
2023/07/14 10:14:26;;;;;;;2.90;2.27;;;30.00;43.00;;;;;;5051555;28;20435;-66
2023/07/14 10:16:58;;;;;;;2.23;2.00;;;30.30;42.80;;;;;;5032394;28;20437;-66
2023/07/14 10:19:36;;;;;;;3.83;2.10;;;30.60;42.20;;;;;;5032522;28;20907;-67
2023/07/14 10:22:11;;;;;;;3.20;2.00;;;30.50;44.10;;;;;;5032234;28;20528;-66
2023/07/14 10:24:40;;;;;;;3.80;1.90;;;30.60;42.30;;;;;;5031835;28;20440;-66
2023/07/14 10:27:16;;;;;;;2.87;1.90;;;30.70;43.10;;;;;;5032213;28;20536;-67
2023/07/14 10:29:47;;;;;;;4.63;1.83;;;30.80;42.90;;;;;;5032096;28;20943;-66
2023/07/14 10:32:26;;;;;;;5.47;1.97;;;30.60;39.80;;;;;;5034068;28;20445;-66
2023/07/14 10:35:00;;;;;;;2.80;2.20;;;30.70;41.10;;;;;;5031639;28;20464;-66
2023/07/14 10:37:32;;;;;;;3.70;2.30;;;30.40;43.20;;;;;;5031922;28;20481;-66
2023/07/14 10:40:09;;;;;;;3.93;2.37;;;30.50;43.30;;;;;;5031492;28;20453;-66
2023/07/14 10:42:41;;;;;;;2.50;2.20;;;30.60;41.80;;;;;;5031659;28;20528;-66
2023/07/14 10:45:13;;;;;;;3.00;1.87;;;30.80;44.40;;;;;;5031813;28;20490;-67
2023/07/14 10:47:49;;;;;;;3.00;1.90;;;31.10;43.30;;;;;;5031583;28;20445;-67
2023/07/14 10:50:20;;;;;;;3.77;2.10;;;31.20;43.70;;;;;;5031497;28;20843;-67
2023/07/14 10:52:52;;;;;;;2.10;1.90;;;31.40;39.70;;;;;;5031287;28;20494;-67
2023/07/14 10:55:24;;;;;;;2.67;2.27;;;31.50;40.40;;;;;;5031394;28;20448;-67
2023/07/14 10:57:57;;;;;;;2.00;1.80;;;31.80;40.50;;;;;;5031350;28;20480;-67
2023/07/14 11:00:32;;;;;;;2.63;1.80;;;31.80;39.30;;;;;;5031229;28;20473;-67
2023/07/14 11:03:16;;;;;;;3.33;2.30;;;31.90;37.90;;;;;;5043152;28;20448;-67
2023/07/14 11:05:52;;;;;;;2.80;2.10;;;32.00;39.80;;;;;;5051205;28;20497;-67
2023/07/14 11:08:19;;;;;;;2.70;2.50;;;31.70;35.90;;;;;;5050776;28;20525;-67
2023/07/14 11:10:55;;;;;;;2.33;2.13;;;31.40;39.10;;;;;;5051376;28;20531;-67
2023/07/14 11:13:32;;;;;;;5.50;2.37;;;31.60;36.80;;;;;;5050860;28;20547;-66
2023/07/14 11:16:07;;;;;;;2.57;2.20;;;31.10;37.30;;;;;;5046541;28;20445;-67
2023/07/14 11:18:47;;;;;;;4.50;2.50;;;31.10;37.30;;;;;;5030882;28;20493;-67
2023/07/14 11:21:27;;;;;;;2.63;2.03;;;31.50;39.70;;;;;;5031209;28;20510;-67
2023/07/14 11:24:07;;;;;;;3.20;1.90;;;32.00;37.60;;;;;;5032710;28;20993;-67
2023/07/14 11:26:43;;;;;;;3.50;2.00;;;32.30;38.30;;;;;;5050299;28;20493;-67
2023/07/14 11:29:16;;;;;;;3.20;1.70;;;32.50;35.20;;;;;;5049123;28;20538;-66
2023/07/14 11:31:46;;;;;;;3.80;1.93;;;32.30;36.10;;;;;;5050646;28;20428;-66
2023/07/14 11:34:24;;;;;;;2.43;1.97;;;32.40;34.40;;;;;;5049640;28;20460;-66
2023/07/14 11:37:01;;;;;;;3.50;2.03;;;32.30;34.90;;;;;;5045095;28;20432;-66
2023/07/14 11:39:45;;;;;;;3.03;2.17;;;32.10;36.00;;;;;;5041056;28;20551;-66
2023/07/14 11:42:20;;;;;;;3.20;1.93;;;32.10;37.10;;;;;;5040463;28;20509;-66
2023/07/14 11:44:50;;;;;;;2.57;1.90;;;32.20;39.40;;;;;;5043855;28;20489;-66
2023/07/14 11:47:25;;;;;;;6.80;2.67;;;32.40;38.70;;;;;;5044427;28;20484;-66
2023/07/14 11:49:56;;;;;;;3.20;2.47;;;32.50;35.00;;;;;;5050119;28;20460;-66
2023/07/14 11:52:26;;;;;;;2.87;2.00;;;32.90;34.40;;;;;;5038234;28;20454;-66
2023/07/14 11:55:03;;;;;;;2.97;2.00;;;32.90;37.00;;;;;;5044224;28;20498;-65
2023/07/14 11:57:47;;;;;;;3.73;2.40;;;32.70;34.40;;;;;;5041746;28;20447;-66
2023/07/14 12:00:24;;;;;;;5.20;2.50;;;32.70;34.30;;;;;;5039930;28;20464;-66
2023/07/14 12:03:00;;;;;;;2.40;2.10;;;32.60;38.20;;;;;;5039042;28;21005;-66
2023/07/14 12:05:39;;;;;;;2.80;2.20;;;32.70;35.60;;;;;;5038444;28;20890;-68
2023/07/14 12:08:11;;;;;;;2.30;2.00;;;32.40;34.20;;;;;;5040384;28;20498;-67
2023/07/14 12:10:45;;;;;;;3.33;2.17;;;33.00;35.70;;;;;;5040669;28;20460;-67
2023/07/14 12:13:34;;;;;;;4.33;1.90;;;33.90;35.70;;;;;;5039131;28;20471;-67
2023/07/14 12:16:19;;;;;;;2.13;1.93;;;34.50;33.90;;;;;;5046253;28;20437;-67
2023/07/14 12:19:02;;;;;;;2.23;2.03;;;34.30;37.90;;;;;;5037936;28;20460;-67
2023/07/14 12:21:55;;;;;;;4.17;2.10;;;34.30;32.90;;;;;;5029971;28;20441;-67
2023/07/14 12:24:29;;;;;;;3.20;1.93;;;34.60;35.30;;;;;;5029576;28;20532;-67
2023/07/14 12:27:09;;;;;;;3.50;1.77;;;34.80;33.80;;;;;;5029814;28;20494;-67
2023/07/14 12:29:37;;;;;;;2.33;2.00;;;34.90;31.70;;;;;;5032411;28;20925;-68
2023/07/14 12:32:25;;;;;;;5.73;2.20;;;35.30;33.00;;;;;;5042942;28;21035;-66
2023/07/14 12:34:53;;;;;;;3.73;1.93;;;35.90;30.00;;;;;;5043811;28;21237;-66
2023/07/14 12:37:23;;;;;;;3.70;2.07;;;36.80;29.80;;;;;;5042211;28;20452;-66
2023/07/14 12:39:53;;;;;;;3.47;2.43;;;37.30;29.00;;;;;;5040066;28;20459;-68
2023/07/14 12:42:22;;;;;;;3.50;2.20;;;36.70;30.60;;;;;;5040335;28;20429;-67
2023/07/14 12:44:53;;;;;;;3.50;2.37;;;36.90;32.80;;;;;;5041579;28;20524;-67
2023/07/14 12:47:21;;;;;;;2.13;1.90;;;37.60;31.70;;;;;;5039981;28;20774;-67
2023/07/14 12:49:52;;;;;;;2.20;1.80;;;38.20;29.10;;;;;;5038209;28;20472;-67
2023/07/14 12:52:28;;;;;;;4.10;1.80;;;38.60;28.50;;;;;;5038306;28;20447;-66
2023/07/14 12:54:59;;;;;;;4.30;2.67;;;39.10;28.00;;;;;;5040111;28;20828;-66
2023/07/14 12:57:31;;;;;;;2.00;1.80;;;39.00;26.70;;;;;;5039820;28;21012;-67
2023/07/14 13:00:19;;;;;;;3.10;2.07;;;37.90;26.40;;;;;;5038591;28;20457;-64
2023/07/14 13:02:48;;;;;;;3.53;2.00;;;37.00;28.10;;;;;;5029237;28;20421;-66
2023/07/14 13:05:17;;;;;;;2.73;2.07;;;36.70;28.00;;;;;;5029200;28;20483;-66
2023/07/14 13:07:50;;;;;;;2.53;2.23;;;36.30;29.70;;;;;;5028947;28;20527;-67